Arinos, Brazil
Current Conditions -  °F | °C
As of 2:00 PM on Saturday 20 Dec 2014 (Local Time) from SBCY Reporting Station
Scattered Clouds Scattered Clouds  
Wind Chill: 90°   Ceiling: Unl
Heat Index: 98°   Visibility: 6mi
Dew Point: 73°   Wind: 14mph
Humidity: 59%   Direction: 330°NNW
Pressure: 29.77"   Gusts: NA
Location:  14.03°S, 56.47°W
Report Text: SBCY 201700Z 33012KT 9999 SCT020 32/23 Q1008
Loading
Personal Weather Stations






























Interactive Weather Map New forecast layout! Learn more

10-Day Weather Forecast

Advertisements
Track Severe Weather on mobile